Northern Maine Regional Airport at Presque Isle Presque Isle US
ICAO: KPQI
IATA: PQI
Category: Medium
Scheduled Services: Yes

Elevation: 534 ft
TransAlt. 18000 ft.

Airport Communications:
AWOS 3:118.025
BOSTON CLNC DEL:121.6
BOSTON CNTR:124.75
CTAF/UNICOM:122.8

KPQI Zoom In..

Runways:

(A) RW 01 length 7439 ft width 150 ft
ILS 108.70 / hdg 6

(B) RW 10 length 5994 ft width 100 ft
---- / hdg 96

(C) RW 19 length 7439 ft width 150 ft
---- / hdg 186

(D) RW 28 length 5994 ft width 100 ft
---- / hdg 276

Location; KPQI
Day. 30 / Time. 19.56 Zulu
* Altimeter: 29.73
* Temperature: 19° c. 66.2°f.
* Wind from: 300° Speed 08 kn.
Dewpoint: 11° c.
Visibility: 10 Statute Miles.
Clouds: Overcast 4400 ft.

KPQI 301956Z AUTO 30008KT 10SM OVC044 19/11 A2973 RMK AO2 SLP088 T01890106


Wind From 300°
Speed 08 kn.

 
 
jpsmedia worldairports.se 2020   terms of use